Terminal Aerodrome Forecast
Issued by NWS St Louis, MO

Home | Current Version | Previous Version | Text Only | Print | Product List | Glossary On
Versions: 1 2 3 4 5 6 7 8 9 10 11 12 13 14 15 16 17 18 19 20 21
000
FTUS43 KLSX 281739
TAFCOU
TAF
KCOU 281739Z 2818/2918 12013G19KT P6SM -SHRA OVC050
     FM281900 12011KT P6SM VCSH OVC040
     FM290100 VRB03KT P6SM OVC025
     FM290800 04008KT 5SM -SHRA VCTS OVC020CB
     FM291200 06009KT 5SM -SHRA VCTS OVC008CB=

USA.gov is the U.S. government's official web portal to all federal, state and local government web resources and services.